Time;durP1;ratioP1;P1;durP2;ratioP2;P2;SDS_P1;SDS_P2;PMS_P1;PMS_P2;Temp;Humidity;BMP_temperature;BMP_pressure;BME280_temperature;BME280_humidity;BME280_pressure;Samples;Min_cycle;Max_cycle;Signal;HPM_P1;HPM_P2
2021/10/15 00:02:09;;;;;;;42.87;22.27;;;;;;;7.51;64.64;101442.59;126298;1097;104171;-77
2021/10/15 00:04:37;;;;;;;39.50;20.30;;;;;;;7.47;64.68;101451.06;126296;1099;104159;-78
2021/10/15 00:07:05;;;;;;;39.63;20.67;;;;;;;7.41;64.89;101441.11;126326;1099;104259;-77
2021/10/15 00:09:33;;;;;;;40.07;20.83;;;;;;;7.36;64.93;101450.37;126339;1099;104150;-77
2021/10/15 00:12:01;;;;;;;39.50;19.90;;;;;;;7.32;65.02;101445.75;126370;1099;104785;-77
2021/10/15 00:14:29;;;;;;;37.53;20.77;;;;;;;7.29;64.97;101442.94;126251;1098;104274;-78
2021/10/15 00:16:56;;;;;;;37.23;19.53;;;;;;;7.29;64.64;101443.87;126357;1098;104153;-78
2021/10/15 00:19:24;;;;;;;39.10;19.43;;;;;;;7.28;64.62;101435.94;126293;1099;104146;-78
2021/10/15 00:21:52;;;;;;;41.00;20.23;;;;;;;7.27;64.61;101426.28;126352;1098;104195;-77
2021/10/15 00:24:20;;;;;;;40.70;20.60;;;;;;;7.26;64.75;101429.69;126262;1099;104377;-77
2021/10/15 00:26:48;;;;;;;36.33;18.40;;;;;;;7.24;65.03;101424.38;126288;1099;104280;-77
2021/10/15 00:29:16;;;;;;;38.27;19.90;;;;;;;7.24;65.07;101428.70;126349;1099;104141;-77
2021/10/15 00:31:44;;;;;;;37.77;20.27;;;;;;;7.23;64.97;101419.98;126293;1099;104149;-78
2021/10/15 00:34:12;;;;;;;37.20;19.47;;;;;;;7.22;64.75;101420.77;126311;1099;104191;-78
2021/10/15 00:36:40;;;;;;;38.87;20.30;;;;;;;7.20;64.99;101417.17;126333;1098;104140;-77
2021/10/15 00:39:08;;;;;;;37.73;19.90;;;;;;;7.17;65.24;101415.25;126293;1099;104386;-78
2021/10/15 00:41:38;;;;;;;39.77;19.70;;;;;;;7.16;65.20;101409.94;126331;1099;104274;-78
2021/10/15 00:44:07;;;;;;;36.20;20.27;;;;;;;7.17;65.22;101407.42;126262;1099;104150;-78
2021/10/15 00:46:37;;;;;;;38.73;18.77;;;;;;;7.16;65.22;101402.11;126344;1099;104281;-78
2021/10/15 00:49:06;;;;;;;37.80;19.63;;;;;;;7.14;65.56;101402.01;126337;1099;104277;-78
2021/10/15 00:51:35;;;;;;;36.60;18.60;;;;;;;7.12;65.54;101401.02;126292;1099;104303;-78
2021/10/15 00:54:04;;;;;;;38.47;19.93;;;;;;;7.10;65.11;101401.72;126326;1099;104220;-78
2021/10/15 00:56:33;;;;;;;39.97;19.30;;;;;;;7.06;65.27;101408.45;126296;1098;104275;-78
2021/10/15 00:59:02;;;;;;;34.40;17.87;;;;;;;7.01;65.94;101404.62;126373;1099;104201;-78
2021/10/15 01:01:30;;;;;;;33.10;18.23;;;;;;;6.95;65.77;101410.37;126318;1099;104437;-78
2021/10/15 01:03:59;;;;;;;37.57;18.97;;;;;;;6.92;65.71;101411.85;126275;1099;104303;-77
2021/10/15 01:06:29;;;;;;;37.60;20.47;;;;;;;6.87;65.75;101408.05;126349;1099;104165;-77
2021/10/15 01:08:58;;;;;;;38.13;19.40;;;;;;;6.82;66.15;101411.28;126343;1099;104162;-77
2021/10/15 01:11:27;;;;;;;36.63;18.63;;;;;;;6.78;65.96;101405.77;126298;1099;104201;-77
2021/10/15 01:13:56;;;;;;;37.67;19.73;;;;;;;6.76;66.12;101412.56;126310;1098;104460;-78
2021/10/15 01:16:26;;;;;;;36.03;18.70;;;;;;;6.73;66.22;101417.58;126290;1096;104137;-78
2021/10/15 01:18:57;;;;;;;35.07;18.23;;;;;;;6.72;66.35;101423.63;126352;1099;104268;-78
2021/10/15 01:21:25;;;;;;;37.83;18.10;;;;;;;6.72;66.26;101410.58;126290;1099;104150;-78
2021/10/15 01:23:53;;;;;;;35.60;18.90;;;;;;;6.72;66.22;101411.47;126323;1098;104204;-78
2021/10/15 01:26:21;;;;;;;36.03;17.17;;;;;;;6.72;66.28;101415.80;126294;1099;117760;-78
2021/10/15 01:28:51;;;;;;;37.37;18.30;;;;;;;6.73;66.20;101410.68;126305;1099;104168;-77
2021/10/15 01:31:19;;;;;;;36.83;18.80;;;;;;;6.76;67.20;101408.27;126339;1099;104152;-78
2021/10/15 01:33:47;;;;;;;34.53;18.80;;;;;;;6.73;66.86;101412.36;126302;1099;104194;-78
2021/10/15 01:36:15;;;;;;;36.87;19.70;;;;;;;6.72;66.68;101411.47;126284;1099;104165;-78
2021/10/15 01:38:43;;;;;;;40.30;19.83;;;;;;;6.72;66.70;101414.08;126348;1098;104171;-79
2021/10/15 01:41:10;;;;;;;36.30;18.70;;;;;;;6.71;66.75;101406.16;126316;1099;104200;-77
2021/10/15 01:43:38;;;;;;;34.87;18.63;;;;;;;6.69;67.01;101403.45;126307;1099;105458;-78
2021/10/15 01:46:06;;;;;;;39.40;18.83;;;;;;;6.66;66.95;101408.45;126252;1099;101735;-79
2021/10/15 01:48:34;;;;;;;29.93;15.30;;;;;;;6.64;67.04;101404.86;126322;1099;104146;-78
2021/10/15 01:51:02;;;;;;;34.97;17.60;;;;;;;6.62;67.82;101403.83;126385;1099;104238;-78
2021/10/15 01:53:31;;;;;;;36.77;18.93;;;;;;;6.61;67.50;101405.55;126293;1099;104283;-78
2021/10/15 01:56:01;;;;;;;36.90;17.67;;;;;;;6.58;67.39;101405.34;126272;1099;104262;-77
2021/10/15 01:58:29;;;;;;;34.50;17.13;;;;;;;6.58;67.45;101407.06;126300;1099;104165;-78
2021/10/15 02:00:57;;;;;;;33.37;17.60;;;;;;;6.54;67.46;101403.33;126351;1099;104159;-78
2021/10/15 02:03:25;;;;;;;30.67;16.37;;;;;;;6.53;67.68;101404.14;126341;1099;104155;-77
2021/10/15 02:05:53;;;;;;;31.67;16.03;;;;;;;6.53;67.56;101403.22;126277;1099;104322;-78
2021/10/15 02:08:21;;;;;;;31.40;16.27;;;;;;;6.56;67.48;101406.95;126296;1099;104195;-78
2021/10/15 02:10:49;;;;;;;34.47;16.90;;;;;;;6.56;67.38;101408.64;126244;1099;104189;-78
2021/10/15 02:13:17;;;;;;;34.27;16.93;;;;;;;6.55;67.61;101402.53;126339;1099;104140;-79
2021/10/15 02:15:46;;;;;;;35.83;17.07;;;;;;;6.55;67.71;101412.07;126263;1099;104264;-78
2021/10/15 02:18:16;;;;;;;34.90;17.43;;;;;;;6.56;67.51;101408.64;126313;1099;104175;-78
2021/10/15 02:20:45;;;;;;;33.60;16.97;;;;;;;6.62;67.99;101411.66;126281;1099;104169;-77
2021/10/15 02:23:12;;;;;;;32.07;16.23;;;;;;;6.68;67.60;101409.45;126351;1099;104589;-77
2021/10/15 02:25:40;;;;;;;33.33;16.17;;;;;;;6.71;67.43;101414.88;126284;1099;104160;-77
2021/10/15 02:28:08;;;;;;;34.93;17.13;;;;;;;6.74;67.60;101408.96;126339;1099;104185;-77
2021/10/15 02:30:36;;;;;;;31.63;15.60;;;;;;;6.79;67.62;101411.08;126288;1099;104137;-77
2021/10/15 02:33:04;;;;;;;32.63;16.23;;;;;;;6.86;67.36;101411.45;126312;1099;104188;-77
2021/10/15 02:35:33;;;;;;;30.40;15.77;;;;;;;6.86;67.81;101407.16;126267;1099;104188;-78
2021/10/15 02:38:01;;;;;;;33.77;16.83;;;;;;;6.88;67.51;101409.87;126327;1099;104165;-79
2021/10/15 02:40:30;;;;;;;33.80;16.70;;;;;;;6.89;67.68;101411.66;126307;1099;104331;-79
2021/10/15 02:42:58;;;;;;;33.57;17.03;;;;;;;6.86;67.74;101420.20;126273;1099;104472;-78
2021/10/15 02:45:27;;;;;;;32.00;16.87;;;;;;;6.86;67.69;101427.11;126289;1099;104178;-78
2021/10/15 02:47:56;;;;;;;31.50;16.13;;;;;;;6.83;67.68;101420.89;126318;1099;104152;-78
2021/10/15 02:50:24;;;;;;;31.23;16.33;;;;;;;6.79;67.73;101426.73;126349;1099;104134;-78
2021/10/15 02:52:52;;;;;;;30.37;15.23;;;;;;;6.77;67.79;101425.71;126339;1099;104348;-77
2021/10/15 02:55:21;;;;;;;32.05;16.00;;;;;;;6.75;67.76;101427.33;126304;1099;104136;-79
2021/10/15 02:57:49;;;;;;;32.53;15.93;;;;;;;6.73;67.97;101428.02;126269;1099;104191;-77
2021/10/15 03:00:20;;;;;;;31.00;16.30;;;;;;;6.71;67.88;101427.91;126319;1099;104197;-79
2021/10/15 03:02:48;;;;;;;32.73;17.40;;;;;;;6.71;67.86;101433.13;126376;1099;104271;-79
2021/10/15 03:05:16;;;;;;;34.93;16.87;;;;;;;6.71;67.83;101435.73;126315;1099;104146;-77
2021/10/15 03:07:45;;;;;;;34.47;16.90;;;;;;;6.71;67.56;101430.52;126222;1099;104213;-77
2021/10/15 03:10:13;;;;;;;28.30;15.10;;;;;;;6.68;68.12;101430.31;126314;1099;104207;-78
2021/10/15 03:12:41;;;;;;;30.93;15.33;;;;;;;6.65;68.31;101425.83;126262;1099;104268;-78
2021/10/15 03:15:10;;;;;;;33.47;15.63;;;;;;;6.66;68.03;101427.61;126335;1099;104149;-78
2021/10/15 03:17:38;;;;;;;31.37;14.83;;;;;;;6.66;68.11;101427.61;126270;1099;104147;-78
2021/10/15 03:20:07;;;;;;;31.07;15.63;;;;;;;6.65;68.10;101425.83;126324;1099;104174;-78
2021/10/15 03:22:35;;;;;;;30.23;14.93;;;;;;;6.67;68.03;101428.53;126338;1097;104131;-78
2021/10/15 03:25:03;;;;;;;32.03;15.73;;;;;;;6.70;68.25;101431.34;126339;1099;104150;-78
2021/10/15 03:27:31;;;;;;;31.57;15.97;;;;;;;6.70;68.16;101439.17;126289;1099;104156;-78
2021/10/15 03:29:59;;;;;;;29.63;14.87;;;;;;;6.72;68.24;101439.27;126324;1099;104317;-77
2021/10/15 03:32:27;;;;;;;29.53;14.43;;;;;;;6.71;68.30;101430.52;126301;1099;104303;-77
2021/10/15 03:34:55;;;;;;;29.03;15.13;;;;;;;6.70;68.25;101433.95;126364;1099;104153;-78
2021/10/15 03:37:23;;;;;;;29.30;14.10;;;;;;;6.69;68.29;101426.92;126273;1099;105511;-78
2021/10/15 03:39:51;;;;;;;34.47;14.63;;;;;;;6.71;68.17;101427.02;126356;1099;104140;-77
2021/10/15 03:42:20;;;;;;;28.50;14.13;;;;;;;6.73;68.36;101422.80;126318;1099;104156;-77
2021/10/15 03:44:47;;;;;;;28.53;14.87;;;;;;;6.76;68.41;101428.22;126317;1099;104421;-78
2021/10/15 03:47:16;;;;;;;33.13;15.20;;;;;;;6.75;68.21;101429.94;126277;1098;104270;-78
2021/10/15 03:49:45;;;;;;;30.07;15.50;;;;;;;6.79;68.24;101424.13;126329;1099;104233;-77
2021/10/15 03:52:13;;;;;;;30.47;15.27;;;;;;;6.80;68.46;101419.80;126318;1099;104181;-78
2021/10/15 03:54:42;;;;;;;29.33;14.87;;;;;;;6.78;68.29;101414.48;126318;1099;104146;-76
2021/10/15 03:57:10;;;;;;;31.07;14.67;;;;;;;6.79;68.35;101411.08;126277;1099;104152;-77
2021/10/15 03:59:38;;;;;;;28.80;15.07;;;;;;;6.77;68.58;101420.49;126351;1099;104201;-77
2021/10/15 04:02:06;;;;;;;32.53;15.10;;;;;;;6.77;68.44;101420.49;126334;1099;104216;-77
2021/10/15 04:04:35;;;;;;;32.43;15.33;;;;;;;6.76;68.50;101408.27;126335;1099;104223;-77
2021/10/15 04:07:03;;;;;;;34.77;15.63;;;;;;;6.80;68.49;101415.48;126260;1098;104325;-76
2021/10/15 04:09:34;;;;;;;31.70;15.17;;;;;;;6.83;68.55;101414.78;126276;1098;104290;-77
2021/10/15 04:12:02;;;;;;;29.33;15.13;;;;;;;6.85;68.49;101413.17;126339;1099;104156;-77
2021/10/15 04:14:30;;;;;;;30.27;14.50;;;;;;;6.86;68.61;101420.20;126338;1099;104222;-76
2021/10/15 04:16:58;;;;;;;30.37;14.87;;;;;;;6.87;68.65;101418.48;126389;1099;104140;-77
2021/10/15 04:19:26;;;;;;;29.00;13.27;;;;;;;6.89;68.51;101425.62;126299;1099;104210;-78
2021/10/15 04:21:53;;;;;;;29.17;13.53;;;;;;;6.92;68.75;101422.29;126194;1098;104213;-77
2021/10/15 04:24:21;;;;;;;27.47;13.30;;;;;;;6.86;68.78;101422.81;126335;1099;104271;-77
2021/10/15 04:26:49;;;;;;;26.87;13.53;;;;;;;6.79;68.68;101431.95;126324;1099;104267;-76
2021/10/15 04:29:17;;;;;;;27.93;14.17;;;;;;;6.73;68.83;101433.23;126317;1099;104741;-77
2021/10/15 04:31:45;;;;;;;29.53;14.90;;;;;;;6.70;68.84;101438.24;126236;1099;104178;-77
2021/10/15 04:34:13;;;;;;;29.40;14.87;;;;;;;6.66;68.58;101435.44;126253;1099;104150;-77
2021/10/15 04:36:41;;;;;;;33.10;15.17;;;;;;;6.67;68.77;101431.14;126315;1099;104152;-77
2021/10/15 04:39:09;;;;;;;28.33;14.83;;;;;;;6.69;68.94;101437.35;126253;1099;104281;-77
2021/10/15 04:41:37;;;;;;;30.33;15.20;;;;;;;6.73;68.89;101434.16;126255;1099;104194;-77
2021/10/15 04:44:05;;;;;;;28.20;14.23;;;;;;;6.72;68.66;101440.16;126328;1099;104359;-78
2021/10/15 04:46:33;;;;;;;31.57;15.20;;;;;;;6.70;68.82;101439.17;126170;1099;104284;-76
2021/10/15 04:49:01;;;;;;;29.83;14.07;;;;;;;6.72;68.98;101447.98;126120;1099;104277;-76
2021/10/15 04:51:29;;;;;;;30.80;14.13;;;;;;;6.72;68.91;101442.77;126034;1099;104287;-76
2021/10/15 04:53:57;;;;;;;33.43;15.37;;;;;;;6.73;68.87;101435.84;126218;1098;104296;-77
2021/10/15 04:56:27;;;;;;;38.90;15.50;;;;;;;6.74;69.06;101440.27;126281;1099;104153;-78
2021/10/15 04:58:59;;;;;;;27.85;14.90;;;;;;;6.78;68.99;101444.89;126104;1099;104162;-76
2021/10/15 05:01:27;;;;;;;34.80;15.60;;;;;;;6.78;68.72;101437.96;126259;1099;104217;-77
2021/10/15 05:03:55;;;;;;;30.03;15.53;;;;;;;6.83;69.24;101436.55;126242;1099;104280;-77
2021/10/15 05:06:23;;;;;;;32.50;14.80;;;;;;;6.89;68.94;101436.06;126255;1099;104213;-77
2021/10/15 05:09:02;;;;;;;28.87;14.83;;;;;;;6.91;69.04;101438.77;126164;1099;104140;-76
2021/10/15 05:11:31;;;;;;;29.13;14.87;;;;;;;6.96;69.15;101439.96;126135;1099;104133;-77
2021/10/15 05:13:59;;;;;;;28.43;14.53;;;;;;;6.99;69.08;101447.99;126164;1099;104249;-78
2021/10/15 05:16:27;;;;;;;30.60;14.63;;;;;;;7.02;69.07;101453.41;126230;1099;104217;-78
2021/10/15 05:19:12;;;;;;;29.40;15.30;;;;;;;7.03;69.02;101450.02;126109;1099;104322;-76
2021/10/15 05:21:40;;;;;;;30.20;16.07;;;;;;;7.11;69.05;101458.34;126318;1099;104319;-76
2021/10/15 05:24:08;;;;;;;30.90;15.47;;;;;;;7.12;69.12;101452.30;126220;1099;104348;-76
2021/10/15 05:26:38;;;;;;;29.90;15.33;;;;;;;7.15;68.72;101465.55;125953;1099;104150;-76
2021/10/15 05:29:07;;;;;;;32.27;16.13;;;;;;;7.16;69.23;101463.03;126081;1099;104325;-76
2021/10/15 05:31:38;;;;;;;32.10;15.60;;;;;;;7.17;69.22;101464.85;125976;1099;104244;-76
2021/10/15 05:34:06;;;;;;;30.73;15.93;;;;;;;7.20;69.19;101459.83;126010;1099;104137;-78
2021/10/15 05:36:38;;;;;;;28.73;15.00;;;;;;;7.24;69.03;101462.64;126026;1099;104210;-77
2021/10/15 05:39:08;;;;;;;31.87;15.97;;;;;;;7.24;68.90;101463.53;125955;1099;104278;-76
2021/10/15 05:41:36;;;;;;;35.50;15.53;;;;;;;7.28;69.03;101462.05;126088;1099;104268;-76
2021/10/15 05:44:07;;;;;;;30.70;14.90;;;;;;;7.33;68.86;101455.40;126269;1099;104144;-78
2021/10/15 05:46:37;;;;;;;38.23;16.77;;;;;;;7.39;69.30;101453.18;126085;1098;104153;-77
2021/10/15 05:49:08;;;;;;;28.83;15.70;;;;;;;7.42;68.84;101455.98;126104;1099;104299;-76
2021/10/15 05:51:40;;;;;;;28.90;14.83;;;;;;;7.47;68.96;101451.95;126074;1099;104217;-77
2021/10/15 05:54:16;;;;;;;32.73;15.37;;;;;;;7.48;68.72;101453.77;126109;1099;104175;-77
2021/10/15 05:57:16;;;;;;;34.00;15.43;;;;;;;7.46;68.93;101452.75;126138;1099;104258;-80
2021/10/15 05:59:47;;;;;;;36.43;16.33;;;;;;;7.46;68.97;101450.13;125298;1099;104304;-79
2021/10/15 06:02:23;;;;;;;29.77;15.20;;;;;;;7.52;68.99;101442.69;125953;1099;104402;-79
2021/10/15 06:15:54;;;;;;;31.77;15.63;;;;;;;7.64;69.01;101441.67;125126;1102;104306;-78
2021/10/15 06:18:27;;;;;;;33.07;15.67;;;;;;;7.64;68.90;101444.28;125182;1101;104312;-80
2021/10/15 06:20:58;;;;;;;32.20;15.67;;;;;;;7.62;68.47;101436.35;125133;1102;104174;-78
2021/10/15 06:23:28;;;;;;;30.90;16.40;;;;;;;7.63;68.80;101447.69;125106;1102;104332;-78
2021/10/15 06:25:58;;;;;;;32.93;15.90;;;;;;;7.64;68.55;101446.90;125155;1102;104411;-78
2021/10/15 06:28:28;;;;;;;33.63;16.20;;;;;;;7.67;68.95;101447.98;125141;1102;104143;-79
2021/10/15 06:31:02;;;;;;;29.43;15.87;;;;;;;7.69;68.55;101443.75;125001;1103;104293;-77
2021/10/15 06:33:33;;;;;;;32.60;14.90;;;;;;;7.75;68.86;101438.02;125181;1099;104335;-78
2021/10/15 06:36:03;;;;;;;32.20;15.17;;;;;;;7.84;68.86;101440.30;125154;1099;104338;-78
2021/10/15 06:38:33;;;;;;;32.95;15.90;;;;;;;7.94;68.59;101437.43;125266;1102;104318;-77
2021/10/15 06:41:07;;;;;;;36.10;15.33;;;;;;;8.03;68.93;101431.88;125516;1099;104418;-79
2021/10/15 06:43:37;;;;;;;30.33;15.17;;;;;;;8.13;68.85;101436.83;126208;1099;104142;-77
2021/10/15 06:46:08;;;;;;;33.70;14.80;;;;;;;8.25;68.60;101437.57;125998;1098;104193;-77
2021/10/15 06:49:13;;;;;;;34.00;15.00;;;;;;;8.40;69.00;101434.09;125799;1099;104187;-79
2021/10/15 06:51:57;;;;;;;35.33;16.03;;;;;;;8.66;68.83;101434.73;125332;1100;104495;-78
2021/10/15 06:54:26;;;;;;;36.13;16.10;;;;;;;8.80;68.30;101434.73;126070;1099;104277;-77
2021/10/15 06:56:56;;;;;;;35.73;16.57;;;;;;;8.90;68.11;101435.27;126069;1099;104166;-77
2021/10/15 06:59:27;;;;;;;33.17;15.80;;;;;;;8.97;68.46;101434.79;125998;1099;104246;-78
2021/10/15 07:01:59;;;;;;;32.73;16.20;;;;;;;9.03;68.17;101426.39;125936;1099;104265;-78
2021/10/15 07:04:34;;;;;;;36.43;16.30;;;;;;;9.08;67.87;101419.69;126139;1099;104282;-78
2021/10/15 07:07:05;;;;;;;32.83;16.13;;;;;;;9.11;67.70;101417.24;125232;1099;104229;-79
2021/10/15 07:09:42;;;;;;;38.03;16.20;;;;;;;9.16;67.72;101416.70;125286;1099;104278;-78
2021/10/15 07:12:18;;;;;;;39.67;17.23;;;;;;;9.23;67.64;101411.80;125201;1099;104172;-78
2021/10/15 07:14:49;;;;;;;34.27;14.83;;;;;;;9.29;67.85;101402.56;125299;1099;104576;-78
2021/10/15 07:17:20;;;;;;;37.40;16.53;;;;;;;9.39;67.38;101390.86;125944;1099;104197;-78
2021/10/15 07:19:49;;;;;;;37.27;16.10;;;;;;;9.49;67.21;101389.64;125335;1102;104201;-78
2021/10/15 07:22:18;;;;;;;33.17;16.23;;;;;;;9.55;67.03;101395.20;125114;1099;104174;-77
2021/10/15 07:24:47;;;;;;;35.50;16.57;;;;;;;9.58;67.62;101391.86;125233;1099;104261;-77
2021/10/15 07:27:21;;;;;;;44.27;17.20;;;;;;;9.64;67.02;101393.09;125263;1102;104178;-77
2021/10/15 07:29:52;;;;;;;36.10;16.32;;;;;;;9.71;67.56;101392.61;125183;1101;104371;-78
2021/10/15 07:32:20;;;;;;;36.50;16.83;;;;;;;9.81;66.91;101393.98;125159;1102;104456;-78
2021/10/15 07:34:51;;;;;;;34.10;15.93;;;;;;;9.93;67.43;101388.50;126069;1099;104242;-79
2021/10/15 07:37:21;;;;;;;38.90;17.00;;;;;;;10.02;67.39;101383.74;125240;1102;104309;-79
2021/10/15 07:39:53;;;;;;;35.90;15.50;;;;;;;10.15;67.05;101382.64;126100;1099;104294;-77
2021/10/15 07:42:25;;;;;;;38.63;17.77;;;;;;;10.22;66.28;101371.66;125931;1098;104312;-77
2021/10/15 07:44:55;;;;;;;39.37;17.63;;;;;;;10.34;66.21;101381.89;125229;1102;108380;-79
2021/10/15 07:47:26;;;;;;;40.83;17.17;;;;;;;10.52;66.52;101375.80;125258;1099;104321;-78
2021/10/15 07:50:04;;;;;;;39.90;17.60;;;;;;;10.70;66.09;101371.42;125218;1100;104714;-77
2021/10/15 07:52:33;;;;;;;36.03;17.10;;;;;;;10.88;66.17;101373.17;125235;1099;104255;-78
2021/10/15 07:55:04;;;;;;;35.37;17.30;;;;;;;11.06;66.13;101375.76;126044;1099;104412;-77
2021/10/15 07:57:36;;;;;;;35.50;17.10;;;;;;;11.22;65.74;101378.30;125188;1102;104386;-77
2021/10/15 08:00:11;;;;;;;41.97;17.63;;;;;;;11.37;65.65;101379.84;125929;1099;104211;-78
2021/10/15 08:02:44;;;;;;;38.67;17.90;;;;;;;11.49;65.25;101373.41;126067;1099;104290;-78
2021/10/15 08:05:16;;;;;;;38.13;17.47;;;;;;;11.65;65.41;101374.11;125147;1102;104175;-79
2021/10/15 08:07:57;;;;;;;35.07;17.60;;;;;;;11.77;65.13;101379.92;125213;1099;104299;-78
2021/10/15 08:10:30;;;;;;;34.97;16.17;;;;;;;11.85;64.14;101370.64;126080;1099;104216;-79
2021/10/15 08:13:05;;;;;;;39.20;17.70;;;;;;;11.82;63.57;101377.50;126062;1098;104178;-78
2021/10/15 08:15:38;;;;;;;30.07;16.00;;;;;;;11.80;63.59;101382.69;126181;1099;112029;-78
2021/10/15 08:18:10;;;;;;;38.33;17.60;;;;;;;11.81;63.27;101366.09;126261;1099;104289;-78
2021/10/15 08:20:40;;;;;;;42.07;16.87;;;;;;;11.84;63.63;101368.86;126105;1099;104266;-77
2021/10/15 08:23:11;;;;;;;32.20;14.77;;;;;;;11.92;63.36;101377.13;126039;1099;104191;-77
2021/10/15 08:25:45;;;;;;;34.63;15.70;;;;;;;12.00;63.30;101373.09;126181;1099;104211;-79
2021/10/15 08:28:17;;;;;;;30.40;15.53;;;;;;;12.08;63.13;101370.80;126257;1099;104169;-78
2021/10/15 08:30:47;;;;;;;31.57;15.40;;;;;;;12.16;62.22;101372.02;126201;1099;104200;-78
2021/10/15 08:33:19;;;;;;;28.93;14.67;;;;;;;12.20;62.35;101371.33;126255;1099;104376;-80
2021/10/15 08:35:54;;;;;;;30.47;14.47;;;;;;;12.32;62.36;101364.78;126156;1099;104139;-79
2021/10/15 08:38:30;;;;;;;32.07;15.03;;;;;;;12.38;62.54;101371.19;126197;1099;104197;-80
2021/10/15 08:41:04;;;;;;;27.20;14.17;;;;;;;12.44;61.45;101373.20;126167;1099;104136;-78
2021/10/15 08:43:37;;;;;;;;;;;;;;;12.54;59.72;101369.20;126240;1099;104139;-79
2021/10/15 08:46:08;;;;;;;29.70;13.07;;;;;;;12.63;60.75;101360.80;125281;1099;104341;-78
2021/10/15 08:48:39;;;;;;;25.70;12.70;;;;;;;12.68;60.26;101361.88;125150;1102;104178;-78
2021/10/15 08:51:10;;;;;;;27.47;13.20;;;;;;;12.75;60.92;101363.94;125175;1100;102182;-78
2021/10/15 08:53:52;;;;;;;31.03;14.00;;;;;;;12.81;60.88;101364.19;125200;1102;104377;-78
2021/10/15 08:56:23;;;;;;;29.57;14.73;;;;;;;12.89;60.42;101354.84;125164;1099;104147;-78
2021/10/15 08:59:01;;;;;;;28.47;14.00;;;;;;;12.94;60.41;101358.55;125196;1102;104303;-80
2021/10/15 09:01:48;;;;;;;24.87;12.57;;;;;;;13.00;59.99;101357.02;125115;1100;104192;-79
2021/10/15 09:04:43;;;;;;;32.13;14.00;;;;;;;13.06;59.22;101350.24;125077;1102;104380;-79
2021/10/15 09:07:56;;;;;;;27.07;13.60;;;;;;;13.15;59.52;101356.70;125053;1102;113363;-79
2021/10/15 09:10:33;;;;;;;28.23;12.67;;;;;;;13.15;58.42;101357.62;125269;1102;104435;-79
2021/10/15 09:13:20;;;;;;;29.17;14.57;;;;;;;13.17;58.04;101348.03;125215;1102;104157;-78
2021/10/15 09:15:50;;;;;;;27.43;13.37;;;;;;;13.20;57.31;101339.32;125120;1102;104238;-77
2021/10/15 09:18:32;;;;;;;28.40;11.80;;;;;;;13.28;58.01;101337.90;125276;1102;104158;-78
2021/10/15 09:21:15;;;;;;;28.35;12.80;;;;;;;13.28;57.45;101346.70;125206;1102;104245;-77
2021/10/15 09:23:49;;;;;;;32.63;12.20;;;;;;;13.34;57.31;101342.52;126038;1099;104160;-76
2021/10/15 09:26:24;;;;;;;28.03;13.00;;;;;;;13.42;56.67;101341.09;126210;1099;104287;-77
2021/10/15 09:28:55;;;;;;;24.70;11.67;;;;;;;13.51;57.00;101340.52;126183;1099;104181;-77
2021/10/15 09:31:28;;;;;;;27.42;12.85;;;;;;;13.62;57.38;101344.47;126252;1099;104210;-77
2021/10/15 09:33:59;;;;;;;23.60;12.00;;;;;;;13.73;57.51;101344.83;126307;1099;104143;-77
2021/10/15 09:36:27;;;;;;;24.23;10.40;;;;;;;13.73;56.51;101345.75;126185;1099;104694;-78
2021/10/15 09:38:57;;;;;;;25.97;11.20;;;;;;;13.79;56.04;101337.14;126149;1099;104146;-76
2021/10/15 09:41:36;;;;;;;21.17;11.23;;;;;;;13.84;55.42;101335.59;126223;1099;104172;-78
2021/10/15 09:44:30;;;;;;;21.77;11.10;;;;;;;13.82;54.41;101337.25;126184;1099;104166;-76
2021/10/15 09:47:13;;;;;;;26.00;11.33;;;;;;;13.77;55.65;101331.81;125947;1099;104230;-77
2021/10/15 09:49:52;;;;;;;24.13;10.73;;;;;;;13.85;55.68;101332.09;126085;1099;104201;-78
2021/10/15 09:52:38;;;;;;;24.43;10.13;;;;;;;13.92;55.04;101326.20;126134;1099;104267;-79
2021/10/15 09:55:15;;;;;;;25.30;12.10;;;;;;;13.97;55.20;101315.80;126089;1099;104143;-78
2021/10/15 09:57:48;;;;;;;24.97;12.47;;;;;;;14.00;54.34;101322.08;126002;1099;104233;-78
2021/10/15 10:00:22;;;;;;;27.47;12.67;;;;;;;14.04;53.92;101328.37;126128;1099;104264;-78
2021/10/15 10:02:53;;;;;;;26.02;11.93;;;;;;;14.08;54.71;101322.34;126093;1099;104207;-79
2021/10/15 10:05:22;;;;;;;27.07;11.27;;;;;;;14.09;53.77;101332.06;126037;1099;104283;-78
2021/10/15 10:07:55;;;;;;;20.87;9.73;;;;;;;14.11;54.45;101335.64;126158;1099;104204;-79
2021/10/15 10:10:26;;;;;;;28.97;10.63;;;;;;;14.12;53.77;101347.12;125946;1099;104168;-78
2021/10/15 10:12:56;;;;;;;23.63;10.17;;;;;;;14.14;53.83;101342.78;125800;1099;104169;-78
2021/10/15 10:15:29;;;;;;;23.87;10.90;;;;;;;14.17;53.72;101330.58;126013;1099;104175;-77
2021/10/15 10:18:11;;;;;;;23.50;11.60;;;;;;;14.18;54.16;101337.66;125832;1099;104166;-76
2021/10/15 10:20:50;;;;;;;21.57;11.80;;;;;;;14.20;53.20;101335.08;125816;1099;104294;-76
2021/10/15 10:23:28;;;;;;;25.33;11.73;;;;;;;14.18;52.95;101328.86;125831;1099;104157;-77
2021/10/15 10:25:58;;;;;;;26.50;11.90;;;;;;;14.18;53.19;101326.22;125950;1099;104389;-76
2021/10/15 10:28:28;;;;;;;27.13;11.87;;;;;;;14.18;53.07;101323.58;125797;1099;104357;-77
2021/10/15 10:31:03;;;;;;;21.83;10.27;;;;;;;14.17;53.43;101332.33;125830;1099;104274;-77
2021/10/15 10:33:50;;;;;;;19.82;10.25;;;;;;;14.15;52.70;101337.55;125908;1099;104175;-76
2021/10/15 10:36:19;;;;;;;22.63;10.40;;;;;;;14.17;53.27;101324.41;126002;1099;104187;-78
2021/10/15 10:38:50;;;;;;;21.83;10.23;;;;;;;14.19;52.45;101317.44;125999;1099;104306;-77
2021/10/15 10:41:28;;;;;;;20.70;10.05;;;;;;;14.22;52.01;101311.37;126089;1099;104982;-78
2021/10/15 10:44:10;;;;;;;21.90;9.90;;;;;;;14.26;52.00;101314.17;126017;1099;104191;-76
2021/10/15 10:46:39;;;;;;;22.07;10.00;;;;;;;14.29;51.68;101310.71;126041;1099;104139;-76
2021/10/15 10:49:24;;;;;;;19.90;9.67;;;;;;;14.30;51.25;101304.59;126018;1098;104137;-77
2021/10/15 10:52:10;;;;;;;19.63;9.47;;;;;;;14.34;51.13;101312.67;125989;1099;104169;-78
2021/10/15 10:54:44;;;;;;;23.47;9.63;;;;;;;14.35;51.06;101313.56;126055;1099;104149;-79
2021/10/15 10:57:18;;;;;;;19.70;8.88;;;;;;;14.35;51.83;101314.48;126008;1099;104790;-77
2021/10/15 10:59:54;;;;;;;21.33;10.03;;;;;;;14.39;51.27;101311.07;126102;1099;108241;-76
2021/10/15 11:02:24;;;;;;;20.77;10.20;;;;;;;14.41;50.97;101312.88;126048;1099;104194;-78
2021/10/15 11:04:59;;;;;;;21.57;9.93;;;;;;;14.37;50.24;101299.57;126107;1099;104271;-80
2021/10/15 11:07:34;;;;;;;18.53;9.10;;;;;;;14.40;51.08;101293.51;126018;1099;104269;-78
2021/10/15 11:10:20;;;;;;;22.20;10.15;;;;;;;14.37;50.01;101290.77;126044;1099;118579;-78
2021/10/15 11:13:01;;;;;;;21.40;10.07;;;;;;;14.41;51.10;101287.36;126101;1099;104223;-79
2021/10/15 11:15:36;;;;;;;21.40;9.87;;;;;;;14.44;50.70;101282.17;125203;1102;104284;-79
2021/10/15 11:18:09;;;;;;;20.60;10.37;;;;;;;14.48;51.05;101284.08;125268;1102;104175;-79
2021/10/15 11:21:13;;;;;;;21.53;10.50;;;;;;;14.54;50.00;101275.47;125285;1099;104201;-78
2021/10/15 11:23:46;;;;;;;25.83;10.37;;;;;;;14.55;49.63;101271.96;125275;1099;104159;-78
2021/10/15 11:26:16;;;;;;;21.50;10.45;;;;;;;14.57;50.10;101267.64;125145;1099;104213;-77
2021/10/15 11:29:13;;;;;;;23.57;11.17;;;;;;;14.53;49.62;101271.91;125260;1102;104149;-80
2021/10/15 11:32:08;;;;;;;22.73;11.87;;;;;;;14.51;48.98;101270.09;125285;1102;104187;-77